sensor_id;sensor_type;location;lat;lon;timestamp;P1;durP1;ratioP1;P2;durP2;ratioP2
51566;SDS011;37657;53.182;5.638;2024-01-15T00:01:33;14.90;;;5.07;;
51566;SDS011;37657;53.182;5.638;2024-01-15T00:03:59;11.63;;;4.32;;
51566;SDS011;37657;53.182;5.638;2024-01-15T00:06:25;9.20;;;5.05;;
51566;SDS011;37657;53.182;5.638;2024-01-15T00:08:53;11.52;;;5.40;;
51566;SDS011;37657;53.182;5.638;2024-01-15T00:11:19;12.15;;;4.85;;
51566;SDS011;37657;53.182;5.638;2024-01-15T00:13:44;9.10;;;4.78;;
51566;SDS011;37657;53.182;5.638;2024-01-15T00:16:10;17.35;;;6.05;;
51566;SDS011;37657;53.182;5.638;2024-01-15T00:18:36;26.95;;;6.97;;
51566;SDS011;37657;53.182;5.638;2024-01-15T00:21:02;25.15;;;5.18;;
51566;SDS011;37657;53.182;5.638;2024-01-15T00:23:28;13.25;;;4.45;;
51566;SDS011;37657;53.182;5.638;2024-01-15T00:25:53;11.52;;;6.07;;
51566;SDS011;37657;53.182;5.638;2024-01-15T00:28:19;13.45;;;5.05;;
51566;SDS011;37657;53.182;5.638;2024-01-15T00:30:45;22.73;;;6.45;;
51566;SDS011;37657;53.182;5.638;2024-01-15T00:33:10;14.70;;;4.53;;
51566;SDS011;37657;53.182;5.638;2024-01-15T00:35:37;23.38;;;7.03;;
51566;SDS011;37657;53.182;5.638;2024-01-15T00:38:03;16.98;;;7.55;;
51566;SDS011;37657;53.182;5.638;2024-01-15T00:40:28;7.97;;;3.53;;
51566;SDS011;37657;53.182;5.638;2024-01-15T00:42:54;7.15;;;1.80;;
51566;SDS011;37657;53.182;5.638;2024-01-15T00:45:20;2.92;;;2.38;;
51566;SDS011;37657;53.182;5.638;2024-01-15T00:47:45;8.40;;;3.17;;
51566;SDS011;37657;53.182;5.638;2024-01-15T00:50:11;3.55;;;2.53;;
51566;SDS011;37657;53.182;5.638;2024-01-15T00:52:37;4.18;;;1.92;;
51566;SDS011;37657;53.182;5.638;2024-01-15T00:55:03;5.68;;;3.38;;
51566;SDS011;37657;53.182;5.638;2024-01-15T00:57:29;6.40;;;2.42;;
51566;SDS011;37657;53.182;5.638;2024-01-15T00:59:54;4.18;;;2.03;;
51566;SDS011;37657;53.182;5.638;2024-01-15T01:02:20;10.30;;;3.72;;
51566;SDS011;37657;53.182;5.638;2024-01-15T01:04:46;12.88;;;2.85;;
51566;SDS011;37657;53.182;5.638;2024-01-15T01:07:11;5.57;;;2.70;;
51566;SDS011;37657;53.182;5.638;2024-01-15T01:09:37;10.05;;;3.83;;
51566;SDS011;37657;53.182;5.638;2024-01-15T01:12:03;8.30;;;3.85;;
51566;SDS011;37657;53.182;5.638;2024-01-15T01:14:28;6.90;;;3.80;;
51566;SDS011;37657;53.182;5.638;2024-01-15T01:16:54;11.20;;;4.15;;
51566;SDS011;37657;53.182;5.638;2024-01-15T01:19:20;7.45;;;4.20;;
51566;SDS011;37657;53.182;5.638;2024-01-15T01:21:45;6.57;;;3.63;;
51566;SDS011;37657;53.182;5.638;2024-01-15T01:24:11;19.40;;;6.20;;
51566;SDS011;37657;53.182;5.638;2024-01-15T01:26:37;11.82;;;5.22;;
51566;SDS011;37657;53.182;5.638;2024-01-15T01:29:02;23.45;;;6.13;;
51566;SDS011;37657;53.182;5.638;2024-01-15T01:31:28;14.38;;;5.70;;
51566;SDS011;37657;53.182;5.638;2024-01-15T01:33:53;7.88;;;3.63;;
51566;SDS011;37657;53.182;5.638;2024-01-15T01:36:19;13.50;;;5.55;;
51566;SDS011;37657;53.182;5.638;2024-01-15T01:38:45;11.30;;;5.65;;
51566;SDS011;37657;53.182;5.638;2024-01-15T01:41:10;17.58;;;5.90;;
51566;SDS011;37657;53.182;5.638;2024-01-15T01:43:36;9.52;;;3.55;;
51566;SDS011;37657;53.182;5.638;2024-01-15T01:46:02;36.03;;;6.30;;
51566;SDS011;37657;53.182;5.638;2024-01-15T01:48:28;21.00;;;5.45;;
51566;SDS011;37657;53.182;5.638;2024-01-15T01:50:56;14.98;;;5.35;;
51566;SDS011;37657;53.182;5.638;2024-01-15T01:53:24;8.27;;;4.25;;
51566;SDS011;37657;53.182;5.638;2024-01-15T01:55:51;13.98;;;5.68;;
51566;SDS011;37657;53.182;5.638;2024-01-15T01:58:18;17.50;;;5.47;;
51566;SDS011;37657;53.182;5.638;2024-01-15T02:00:45;13.93;;;5.13;;
51566;SDS011;37657;53.182;5.638;2024-01-15T02:03:12;13.90;;;5.53;;
51566;SDS011;37657;53.182;5.638;2024-01-15T02:05:39;11.48;;;4.90;;
51566;SDS011;37657;53.182;5.638;2024-01-15T02:08:05;18.90;;;6.50;;
51566;SDS011;37657;53.182;5.638;2024-01-15T02:10:31;16.17;;;6.93;;
51566;SDS011;37657;53.182;5.638;2024-01-15T02:12:57;10.93;;;5.00;;
51566;SDS011;37657;53.182;5.638;2024-01-15T02:15:23;11.75;;;3.38;;
51566;SDS011;37657;53.182;5.638;2024-01-15T02:17:58;7.80;;;3.60;;
51566;SDS011;37657;53.182;5.638;2024-01-15T02:20:25;11.20;;;4.00;;
51566;SDS011;37657;53.182;5.638;2024-01-15T02:22:51;9.77;;;2.90;;
51566;SDS011;37657;53.182;5.638;2024-01-15T02:25:17;10.00;;;3.83;;
51566;SDS011;37657;53.182;5.638;2024-01-15T02:27:43;10.15;;;4.10;;
51566;SDS011;37657;53.182;5.638;2024-01-15T02:30:11;9.85;;;4.13;;
51566;SDS011;37657;53.182;5.638;2024-01-15T02:32:37;12.07;;;5.07;;
51566;SDS011;37657;53.182;5.638;2024-01-15T02:35:04;7.55;;;4.20;;
51566;SDS011;37657;53.182;5.638;2024-01-15T02:37:29;10.93;;;3.92;;
51566;SDS011;37657;53.182;5.638;2024-01-15T02:39:55;10.13;;;5.25;;
51566;SDS011;37657;53.182;5.638;2024-01-15T02:42:21;7.15;;;3.78;;
51566;SDS011;37657;53.182;5.638;2024-01-15T02:44:46;4.43;;;2.28;;
51566;SDS011;37657;53.182;5.638;2024-01-15T02:47:13;11.02;;;3.67;;
51566;SDS011;37657;53.182;5.638;2024-01-15T02:49:39;5.07;;;3.40;;
51566;SDS011;37657;53.182;5.638;2024-01-15T02:52:05;10.57;;;4.30;;
51566;SDS011;37657;53.182;5.638;2024-01-15T02:54:31;11.23;;;4.60;;
51566;SDS011;37657;53.182;5.638;2024-01-15T02:56:56;9.68;;;3.47;;
51566;SDS011;37657;53.182;5.638;2024-01-15T02:59:22;25.23;;;5.43;;
51566;SDS011;37657;53.182;5.638;2024-01-15T03:01:48;15.73;;;4.32;;
51566;SDS011;37657;53.182;5.638;2024-01-15T03:04:13;12.70;;;5.07;;
51566;SDS011;37657;53.182;5.638;2024-01-15T03:06:39;6.95;;;3.65;;
51566;SDS011;37657;53.182;5.638;2024-01-15T03:09:05;9.27;;;4.50;;
51566;SDS011;37657;53.182;5.638;2024-01-15T03:11:36;11.20;;;4.13;;
51566;SDS011;37657;53.182;5.638;2024-01-15T03:14:05;16.08;;;6.53;;
51566;SDS011;37657;53.182;5.638;2024-01-15T03:16:31;11.10;;;4.40;;
51566;SDS011;37657;53.182;5.638;2024-01-15T03:18:57;9.48;;;3.35;;
51566;SDS011;37657;53.182;5.638;2024-01-15T03:21:22;5.80;;;2.78;;
51566;SDS011;37657;53.182;5.638;2024-01-15T03:23:48;4.72;;;2.92;;
51566;SDS011;37657;53.182;5.638;2024-01-15T03:26:13;4.90;;;3.03;;
51566;SDS011;37657;53.182;5.638;2024-01-15T03:28:39;6.35;;;3.05;;
51566;SDS011;37657;53.182;5.638;2024-01-15T03:31:05;8.88;;;2.85;;
51566;SDS011;37657;53.182;5.638;2024-01-15T03:33:30;4.80;;;2.97;;
51566;SDS011;37657;53.182;5.638;2024-01-15T03:35:56;7.50;;;2.70;;
51566;SDS011;37657;53.182;5.638;2024-01-15T03:38:22;3.85;;;2.30;;
51566;SDS011;37657;53.182;5.638;2024-01-15T03:40:48;3.42;;;3.03;;
51566;SDS011;37657;53.182;5.638;2024-01-15T03:43:14;4.60;;;2.05;;
51566;SDS011;37657;53.182;5.638;2024-01-15T03:45:39;8.95;;;2.97;;
51566;SDS011;37657;53.182;5.638;2024-01-15T03:48:05;11.25;;;2.83;;
51566;SDS011;37657;53.182;5.638;2024-01-15T03:50:31;12.85;;;2.90;;
51566;SDS011;37657;53.182;5.638;2024-01-15T03:52:56;8.70;;;3.72;;
51566;SDS011;37657;53.182;5.638;2024-01-15T03:55:22;9.65;;;3.15;;
51566;SDS011;37657;53.182;5.638;2024-01-15T03:57:48;5.53;;;3.58;;
51566;SDS011;37657;53.182;5.638;2024-01-15T04:00:14;7.57;;;3.67;;
51566;SDS011;37657;53.182;5.638;2024-01-15T04:02:42;6.28;;;3.10;;
51566;SDS011;37657;53.182;5.638;2024-01-15T04:05:09;19.88;;;4.10;;
51566;SDS011;37657;53.182;5.638;2024-01-15T04:07:34;8.25;;;4.13;;
51566;SDS011;37657;53.182;5.638;2024-01-15T04:10:00;10.23;;;4.32;;
51566;SDS011;37657;53.182;5.638;2024-01-15T04:12:26;15.07;;;5.60;;
51566;SDS011;37657;53.182;5.638;2024-01-15T04:14:51;8.55;;;4.47;;
51566;SDS011;37657;53.182;5.638;2024-01-15T04:17:17;13.88;;;5.65;;
51566;SDS011;37657;53.182;5.638;2024-01-15T04:19:46;12.75;;;5.00;;
51566;SDS011;37657;53.182;5.638;2024-01-15T04:22:13;9.38;;;5.47;;
51566;SDS011;37657;53.182;5.638;2024-01-15T04:24:38;8.75;;;4.60;;
51566;SDS011;37657;53.182;5.638;2024-01-15T04:27:05;10.60;;;4.57;;
51566;SDS011;37657;53.182;5.638;2024-01-15T04:29:31;6.90;;;4.53;;
51566;SDS011;37657;53.182;5.638;2024-01-15T04:31:56;15.82;;;6.97;;
51566;SDS011;37657;53.182;5.638;2024-01-15T04:34:22;14.68;;;5.53;;
51566;SDS011;37657;53.182;5.638;2024-01-15T04:36:48;14.07;;;5.95;;
51566;SDS011;37657;53.182;5.638;2024-01-15T04:39:13;26.17;;;7.78;;
51566;SDS011;37657;53.182;5.638;2024-01-15T04:41:39;10.32;;;5.82;;
51566;SDS011;37657;53.182;5.638;2024-01-15T04:44:05;17.42;;;6.20;;
51566;SDS011;37657;53.182;5.638;2024-01-15T04:46:30;15.02;;;7.43;;
51566;SDS011;37657;53.182;5.638;2024-01-15T04:48:56;12.07;;;5.57;;
51566;SDS011;37657;53.182;5.638;2024-01-15T04:51:22;10.25;;;5.53;;
51566;SDS011;37657;53.182;5.638;2024-01-15T04:53:47;13.35;;;4.93;;
51566;SDS011;37657;53.182;5.638;2024-01-15T04:56:13;13.63;;;5.30;;
51566;SDS011;37657;53.182;5.638;2024-01-15T04:58:38;27.85;;;6.22;;
51566;SDS011;37657;53.182;5.638;2024-01-15T05:01:04;12.95;;;5.40;;
51566;SDS011;37657;53.182;5.638;2024-01-15T05:03:30;12.68;;;5.30;;
51566;SDS011;37657;53.182;5.638;2024-01-15T05:05:55;14.45;;;4.50;;
51566;SDS011;37657;53.182;5.638;2024-01-15T05:08:21;10.98;;;5.90;;
51566;SDS011;37657;53.182;5.638;2024-01-15T05:10:47;12.70;;;5.43;;
51566;SDS011;37657;53.182;5.638;2024-01-15T05:13:13;9.77;;;4.15;;
51566;SDS011;37657;53.182;5.638;2024-01-15T05:15:38;15.23;;;5.38;;
51566;SDS011;37657;53.182;5.638;2024-01-15T05:18:04;7.95;;;4.55;;
51566;SDS011;37657;53.182;5.638;2024-01-15T05:20:30;10.98;;;4.95;;
51566;SDS011;37657;53.182;5.638;2024-01-15T05:22:56;8.60;;;4.13;;
51566;SDS011;37657;53.182;5.638;2024-01-15T05:25:21;10.60;;;6.40;;
51566;SDS011;37657;53.182;5.638;2024-01-15T05:27:47;9.63;;;5.10;;
51566;SDS011;37657;53.182;5.638;2024-01-15T05:30:13;11.23;;;5.57;;
51566;SDS011;37657;53.182;5.638;2024-01-15T05:32:39;12.88;;;6.32;;
51566;SDS011;37657;53.182;5.638;2024-01-15T05:35:05;13.38;;;4.57;;
51566;SDS011;37657;53.182;5.638;2024-01-15T05:37:31;9.68;;;4.45;;
51566;SDS011;37657;53.182;5.638;2024-01-15T05:39:56;9.05;;;4.63;;
51566;SDS011;37657;53.182;5.638;2024-01-15T05:42:22;9.88;;;4.88;;
51566;SDS011;37657;53.182;5.638;2024-01-15T05:44:48;10.90;;;4.38;;
51566;SDS011;37657;53.182;5.638;2024-01-15T05:47:13;15.15;;;5.05;;
51566;SDS011;37657;53.182;5.638;2024-01-15T05:49:39;8.98;;;4.10;;
51566;SDS011;37657;53.182;5.638;2024-01-15T05:52:05;13.70;;;6.75;;
51566;SDS011;37657;53.182;5.638;2024-01-15T05:54:31;8.43;;;4.97;;
51566;SDS011;37657;53.182;5.638;2024-01-15T05:56:56;7.65;;;3.35;;
51566;SDS011;37657;53.182;5.638;2024-01-15T05:59:22;5.95;;;3.95;;
51566;SDS011;37657;53.182;5.638;2024-01-15T06:01:48;21.38;;;4.20;;
51566;SDS011;37657;53.182;5.638;2024-01-15T06:04:14;2.40;;;1.40;;
51566;SDS011;37657;53.182;5.638;2024-01-15T06:06:39;8.35;;;2.65;;
51566;SDS011;37657;53.182;5.638;2024-01-15T06:09:05;9.48;;;2.90;;
51566;SDS011;37657;53.182;5.638;2024-01-15T06:11:31;3.42;;;2.50;;
51566;SDS011;37657;53.182;5.638;2024-01-15T06:13:57;3.75;;;2.08;;
51566;SDS011;37657;53.182;5.638;2024-01-15T06:16:23;7.50;;;2.75;;
51566;SDS011;37657;53.182;5.638;2024-01-15T06:18:49;3.53;;;2.47;;
51566;SDS011;37657;53.182;5.638;2024-01-15T06:21:15;6.80;;;2.95;;
51566;SDS011;37657;53.182;5.638;2024-01-15T06:23:41;4.63;;;2.65;;
51566;SDS011;37657;53.182;5.638;2024-01-15T06:26:07;6.63;;;3.03;;
51566;SDS011;37657;53.182;5.638;2024-01-15T06:28:32;17.83;;;4.60;;
51566;SDS011;37657;53.182;5.638;2024-01-15T06:30:58;34.75;;;6.78;;
51566;SDS011;37657;53.182;5.638;2024-01-15T06:33:24;10.20;;;5.13;;
51566;SDS011;37657;53.182;5.638;2024-01-15T06:35:50;8.05;;;3.58;;
51566;SDS011;37657;53.182;5.638;2024-01-15T06:38:16;10.25;;;3.78;;
51566;SDS011;37657;53.182;5.638;2024-01-15T06:40:41;8.43;;;3.88;;
51566;SDS011;37657;53.182;5.638;2024-01-15T06:43:13;9.48;;;3.97;;
51566;SDS011;37657;53.182;5.638;2024-01-15T06:45:40;9.80;;;4.18;;
51566;SDS011;37657;53.182;5.638;2024-01-15T06:48:06;5.70;;;3.30;;
51566;SDS011;37657;53.182;5.638;2024-01-15T06:50:32;9.23;;;4.43;;
51566;SDS011;37657;53.182;5.638;2024-01-15T06:52:58;13.05;;;7.20;;
51566;SDS011;37657;53.182;5.638;2024-01-15T06:55:24;16.55;;;7.85;;
51566;SDS011;37657;53.182;5.638;2024-01-15T06:57:50;13.00;;;5.93;;
51566;SDS011;37657;53.182;5.638;2024-01-15T07:00:17;7.45;;;3.05;;
51566;SDS011;37657;53.182;5.638;2024-01-15T07:02:44;6.68;;;3.63;;
51566;SDS011;37657;53.182;5.638;2024-01-15T07:05:10;26.80;;;5.00;;
51566;SDS011;37657;53.182;5.638;2024-01-15T07:07:36;10.93;;;4.47;;
51566;SDS011;37657;53.182;5.638;2024-01-15T07:10:02;7.22;;;3.92;;
51566;SDS011;37657;53.182;5.638;2024-01-15T07:12:29;7.65;;;4.55;;
51566;SDS011;37657;53.182;5.638;2024-01-15T07:14:55;15.93;;;4.45;;
51566;SDS011;37657;53.182;5.638;2024-01-15T07:17:21;6.07;;;3.30;;
51566;SDS011;37657;53.182;5.638;2024-01-15T07:19:47;7.43;;;3.92;;
51566;SDS011;37657;53.182;5.638;2024-01-15T07:22:13;5.00;;;2.58;;
51566;SDS011;37657;53.182;5.638;2024-01-15T07:24:40;10.60;;;3.97;;
51566;SDS011;37657;53.182;5.638;2024-01-15T07:27:05;8.95;;;5.25;;
51566;SDS011;37657;53.182;5.638;2024-01-15T07:29:31;7.80;;;3.05;;
51566;SDS011;37657;53.182;5.638;2024-01-15T07:32:02;3.28;;;1.92;;
51566;SDS011;37657;53.182;5.638;2024-01-15T07:34:28;3.88;;;1.92;;
51566;SDS011;37657;53.182;5.638;2024-01-15T07:36:54;4.43;;;2.53;;
51566;SDS011;37657;53.182;5.638;2024-01-15T07:39:20;9.77;;;2.83;;
51566;SDS011;37657;53.182;5.638;2024-01-15T07:41:48;5.97;;;2.40;;
51566;SDS011;37657;53.182;5.638;2024-01-15T07:44:14;3.63;;;1.98;;
51566;SDS011;37657;53.182;5.638;2024-01-15T07:46:40;4.40;;;2.42;;
51566;SDS011;37657;53.182;5.638;2024-01-15T07:49:08;4.00;;;2.55;;
51566;SDS011;37657;53.182;5.638;2024-01-15T07:51:34;7.65;;;2.08;;
51566;SDS011;37657;53.182;5.638;2024-01-15T07:54:00;5.18;;;2.92;;
51566;SDS011;37657;53.182;5.638;2024-01-15T07:56:25;4.28;;;2.50;;
51566;SDS011;37657;53.182;5.638;2024-01-15T07:58:52;5.25;;;2.72;;
51566;SDS011;37657;53.182;5.638;2024-01-15T08:01:18;6.72;;;2.47;;
51566;SDS011;37657;53.182;5.638;2024-01-15T08:03:43;6.85;;;2.65;;
51566;SDS011;37657;53.182;5.638;2024-01-15T08:06:09;6.30;;;2.90;;
51566;SDS011;37657;53.182;5.638;2024-01-15T08:08:35;5.80;;;3.13;;
51566;SDS011;37657;53.182;5.638;2024-01-15T08:11:02;8.85;;;3.05;;
51566;SDS011;37657;53.182;5.638;2024-01-15T08:13:27;4.90;;;3.17;;
51566;SDS011;37657;53.182;5.638;2024-01-15T08:15:53;7.82;;;3.28;;
51566;SDS011;37657;53.182;5.638;2024-01-15T08:18:19;8.80;;;3.35;;
51566;SDS011;37657;53.182;5.638;2024-01-15T08:20:46;8.93;;;3.40;;
51566;SDS011;37657;53.182;5.638;2024-01-15T08:23:12;4.60;;;2.13;;
51566;SDS011;37657;53.182;5.638;2024-01-15T08:25:38;4.63;;;2.70;;
51566;SDS011;37657;53.182;5.638;2024-01-15T08:28:03;5.45;;;2.42;;
51566;SDS011;37657;53.182;5.638;2024-01-15T08:30:29;6.90;;;3.20;;
51566;SDS011;37657;53.182;5.638;2024-01-15T08:32:55;5.75;;;2.72;;
51566;SDS011;37657;53.182;5.638;2024-01-15T08:35:21;4.70;;;2.83;;
51566;SDS011;37657;53.182;5.638;2024-01-15T08:37:54;8.82;;;3.45;;
51566;SDS011;37657;53.182;5.638;2024-01-15T08:40:20;8.35;;;2.90;;
51566;SDS011;37657;53.182;5.638;2024-01-15T08:42:45;8.07;;;3.13;;
51566;SDS011;37657;53.182;5.638;2024-01-15T08:45:11;9.07;;;3.67;;
51566;SDS011;37657;53.182;5.638;2024-01-15T08:47:37;6.32;;;3.05;;
51566;SDS011;37657;53.182;5.638;2024-01-15T08:50:03;6.78;;;3.78;;
51566;SDS011;37657;53.182;5.638;2024-01-15T08:52:30;7.25;;;3.40;;
51566;SDS011;37657;53.182;5.638;2024-01-15T08:54:56;9.77;;;4.25;;
51566;SDS011;37657;53.182;5.638;2024-01-15T08:57:22;7.93;;;4.28;;
51566;SDS011;37657;53.182;5.638;2024-01-15T08:59:48;10.57;;;4.72;;
51566;SDS011;37657;53.182;5.638;2024-01-15T09:02:14;9.93;;;3.25;;
51566;SDS011;37657;53.182;5.638;2024-01-15T09:04:40;11.48;;;3.80;;
51566;SDS011;37657;53.182;5.638;2024-01-15T09:07:06;23.27;;;3.83;;
51566;SDS011;37657;53.182;5.638;2024-01-15T09:09:32;6.45;;;3.30;;
51566;SDS011;37657;53.182;5.638;2024-01-15T09:11:59;12.07;;;4.28;;
51566;SDS011;37657;53.182;5.638;2024-01-15T09:14:24;5.80;;;2.58;;
51566;SDS011;37657;53.182;5.638;2024-01-15T09:16:52;7.57;;;2.20;;
51566;SDS011;37657;53.182;5.638;2024-01-15T09:19:18;5.07;;;2.75;;
51566;SDS011;37657;53.182;5.638;2024-01-15T09:21:44;3.17;;;1.92;;
51566;SDS011;37657;53.182;5.638;2024-01-15T09:24:10;6.88;;;2.28;;
51566;SDS011;37657;53.182;5.638;2024-01-15T09:26:36;2.17;;;1.40;;
51566;SDS011;37657;53.182;5.638;2024-01-15T09:29:02;10.68;;;1.98;;
51566;SDS011;37657;53.182;5.638;2024-01-15T09:31:28;4.28;;;2.33;;
51566;SDS011;37657;53.182;5.638;2024-01-15T09:33:53;5.15;;;2.22;;
51566;SDS011;37657;53.182;5.638;2024-01-15T09:36:23;4.88;;;2.58;;
51566;SDS011;37657;53.182;5.638;2024-01-15T09:38:49;4.10;;;2.80;;
51566;SDS011;37657;53.182;5.638;2024-01-15T09:41:15;5.97;;;2.33;;
51566;SDS011;37657;53.182;5.638;2024-01-15T09:43:40;4.38;;;2.65;;
51566;SDS011;37657;53.182;5.638;2024-01-15T09:46:07;7.10;;;1.95;;
51566;SDS011;37657;53.182;5.638;2024-01-15T09:48:33;2.78;;;1.92;;
51566;SDS011;37657;53.182;5.638;2024-01-15T09:51:00;4.25;;;1.67;;
51566;SDS011;37657;53.182;5.638;2024-01-15T09:53:27;6.32;;;2.50;;
51566;SDS011;37657;53.182;5.638;2024-01-15T09:55:52;4.10;;;1.83;;
51566;SDS011;37657;53.182;5.638;2024-01-15T09:58:18;5.03;;;2.60;;
51566;SDS011;37657;53.182;5.638;2024-01-15T10:00:46;6.75;;;3.08;;
51566;SDS011;37657;53.182;5.638;2024-01-15T10:03:15;2.28;;;1.38;;
51566;SDS011;37657;53.182;5.638;2024-01-15T10:05:40;10.40;;;1.58;;
51566;SDS011;37657;53.182;5.638;2024-01-15T10:08:07;7.85;;;2.95;;
51566;SDS011;37657;53.182;5.638;2024-01-15T10:10:33;2.80;;;1.88;;
51566;SDS011;37657;53.182;5.638;2024-01-15T10:13:01;4.63;;;2.67;;
51566;SDS011;37657;53.182;5.638;2024-01-15T10:15:26;4.47;;;2.35;;
51566;SDS011;37657;53.182;5.638;2024-01-15T10:17:52;3.03;;;1.67;;
51566;SDS011;37657;53.182;5.638;2024-01-15T10:20:18;7.40;;;2.55;;
51566;SDS011;37657;53.182;5.638;2024-01-15T10:22:44;5.60;;;2.10;;
51566;SDS011;37657;53.182;5.638;2024-01-15T10:25:12;5.53;;;3.38;;
51566;SDS011;37657;53.182;5.638;2024-01-15T10:27:38;6.13;;;3.10;;
51566;SDS011;37657;53.182;5.638;2024-01-15T10:30:05;15.30;;;3.05;;
51566;SDS011;37657;53.182;5.638;2024-01-15T10:32:31;4.32;;;1.63;;
51566;SDS011;37657;53.182;5.638;2024-01-15T10:34:57;10.75;;;3.22;;
51566;SDS011;37657;53.182;5.638;2024-01-15T10:37:24;9.90;;;3.53;;
51566;SDS011;37657;53.182;5.638;2024-01-15T10:39:50;5.63;;;2.55;;
51566;SDS011;37657;53.182;5.638;2024-01-15T10:42:16;8.00;;;3.30;;
51566;SDS011;37657;53.182;5.638;2024-01-15T10:44:43;4.07;;;2.42;;
51566;SDS011;37657;53.182;5.638;2024-01-15T10:47:09;5.55;;;2.63;;
51566;SDS011;37657;53.182;5.638;2024-01-15T10:49:36;4.80;;;2.80;;
51566;SDS011;37657;53.182;5.638;2024-01-15T10:52:02;3.83;;;2.35;;
51566;SDS011;37657;53.182;5.638;2024-01-15T10:54:28;12.77;;;3.83;;
51566;SDS011;37657;53.182;5.638;2024-01-15T10:56:55;5.53;;;2.47;;
51566;SDS011;37657;53.182;5.638;2024-01-15T10:59:21;5.03;;;3.15;;
51566;SDS011;37657;53.182;5.638;2024-01-15T11:01:50;8.68;;;4.25;;
51566;SDS011;37657;53.182;5.638;2024-01-15T11:04:19;6.78;;;3.80;;
51566;SDS011;37657;53.182;5.638;2024-01-15T11:06:47;6.80;;;3.88;;
51566;SDS011;37657;53.182;5.638;2024-01-15T11:09:15;13.85;;;4.00;;
51566;SDS011;37657;53.182;5.638;2024-01-15T11:11:44;8.40;;;3.88;;
51566;SDS011;37657;53.182;5.638;2024-01-15T11:14:33;10.10;;;4.43;;
51566;SDS011;37657;53.182;5.638;2024-01-15T11:22:07;10.98;;;3.95;;
51566;SDS011;37657;53.182;5.638;2024-01-15T11:24:40;7.03;;;3.25;;
51566;SDS011;37657;53.182;5.638;2024-01-15T11:27:07;4.70;;;1.75;;
51566;SDS011;37657;53.182;5.638;2024-01-15T11:29:36;5.45;;;3.08;;
51566;SDS011;37657;53.182;5.638;2024-01-15T11:37:24;8.57;;;3.50;;
51566;SDS011;37657;53.182;5.638;2024-01-15T11:39:52;15.85;;;4.47;;
51566;SDS011;37657;53.182;5.638;2024-01-15T11:42:19;3.63;;;2.35;;
51566;SDS011;37657;53.182;5.638;2024-01-15T11:44:46;5.75;;;3.05;;
51566;SDS011;37657;53.182;5.638;2024-01-15T11:47:12;10.43;;;4.00;;
51566;SDS011;37657;53.182;5.638;2024-01-15T11:52:37;5.18;;;3.42;;
51566;SDS011;37657;53.182;5.638;2024-01-15T11:55:23;9.82;;;4.47;;
51566;SDS011;37657;53.182;5.638;2024-01-15T11:57:52;10.43;;;4.40;;
51566;SDS011;37657;53.182;5.638;2024-01-15T12:00:22;11.60;;;4.45;;
51566;SDS011;37657;53.182;5.638;2024-01-15T12:02:48;5.72;;;3.72;;
51566;SDS011;37657;53.182;5.638;2024-01-15T12:05:16;7.75;;;2.22;;
51566;SDS011;37657;53.182;5.638;2024-01-15T12:07:44;6.53;;;2.42;;
51566;SDS011;37657;53.182;5.638;2024-01-15T12:10:14;7.68;;;3.67;;
51566;SDS011;37657;53.182;5.638;2024-01-15T12:13:02;8.57;;;4.05;;
51566;SDS011;37657;53.182;5.638;2024-01-15T12:15:30;8.40;;;3.78;;
51566;SDS011;37657;53.182;5.638;2024-01-15T12:17:57;9.43;;;3.83;;
51566;SDS011;37657;53.182;5.638;2024-01-15T12:20:24;8.20;;;3.63;;
51566;SDS011;37657;53.182;5.638;2024-01-15T12:22:53;7.28;;;3.58;;
51566;SDS011;37657;53.182;5.638;2024-01-15T12:25:20;10.05;;;2.97;;
51566;SDS011;37657;53.182;5.638;2024-01-15T12:27:50;13.90;;;5.18;;
51566;SDS011;37657;53.182;5.638;2024-01-15T12:30:17;10.85;;;4.80;;
51566;SDS011;37657;53.182;5.638;2024-01-15T12:32:43;21.35;;;9.55;;
51566;SDS011;37657;53.182;5.638;2024-01-15T12:35:10;13.15;;;5.53;;
51566;SDS011;37657;53.182;5.638;2024-01-15T12:37:39;16.00;;;4.85;;
51566;SDS011;37657;53.182;5.638;2024-01-15T12:40:06;10.45;;;4.72;;
51566;SDS011;37657;53.182;5.638;2024-01-15T12:42:34;7.70;;;4.10;;
51566;SDS011;37657;53.182;5.638;2024-01-15T12:45:06;9.35;;;3.28;;
51566;SDS011;37657;53.182;5.638;2024-01-15T12:47:33;5.28;;;2.97;;
51566;SDS011;37657;53.182;5.638;2024-01-15T12:50:00;6.72;;;3.58;;
51566;SDS011;37657;53.182;5.638;2024-01-15T12:52:29;10.38;;;4.03;;
51566;SDS011;37657;53.182;5.638;2024-01-15T12:54:54;11.20;;;3.05;;
51566;SDS011;37657;53.182;5.638;2024-01-15T12:57:20;9.57;;;4.90;;
51566;SDS011;37657;53.182;5.638;2024-01-15T12:59:46;7.50;;;3.95;;
51566;SDS011;37657;53.182;5.638;2024-01-15T13:02:12;11.32;;;6.47;;
51566;SDS011;37657;53.182;5.638;2024-01-15T13:04:38;7.93;;;4.68;;
51566;SDS011;37657;53.182;5.638;2024-01-15T13:07:08;9.40;;;3.40;;
51566;SDS011;37657;53.182;5.638;2024-01-15T13:09:34;15.75;;;5.03;;
51566;SDS011;37657;53.182;5.638;2024-01-15T13:12:01;11.13;;;5.30;;
51566;SDS011;37657;53.182;5.638;2024-01-15T13:14:30;11.70;;;4.30;;
51566;SDS011;37657;53.182;5.638;2024-01-15T13:16:56;11.02;;;4.35;;
51566;SDS011;37657;53.182;5.638;2024-01-15T13:19:23;11.65;;;5.20;;
51566;SDS011;37657;53.182;5.638;2024-01-15T13:21:49;10.82;;;4.53;;
51566;SDS011;37657;53.182;5.638;2024-01-15T13:24:18;7.53;;;3.83;;
51566;SDS011;37657;53.182;5.638;2024-01-15T13:26:44;8.80;;;2.30;;
51566;SDS011;37657;53.182;5.638;2024-01-15T13:29:10;5.18;;;2.13;;
51566;SDS011;37657;53.182;5.638;2024-01-15T13:31:36;6.85;;;1.70;;
51566;SDS011;37657;53.182;5.638;2024-01-15T13:34:03;6.43;;;1.75;;
51566;SDS011;37657;53.182;5.638;2024-01-15T13:36:28;5.93;;;3.45;;
51566;SDS011;37657;53.182;5.638;2024-01-15T13:38:54;15.00;;;5.03;;
51566;SDS011;37657;53.182;5.638;2024-01-15T13:41:23;10.93;;;5.32;;
51566;SDS011;37657;53.182;5.638;2024-01-15T13:43:52;6.95;;;3.17;;
51566;SDS011;37657;53.182;5.638;2024-01-15T13:46:19;14.95;;;3.05;;
51566;SDS011;37657;53.182;5.638;2024-01-15T13:48:46;6.60;;;2.90;;
51566;SDS011;37657;53.182;5.638;2024-01-15T13:51:12;6.30;;;2.97;;
51566;SDS011;37657;53.182;5.638;2024-01-15T13:53:39;5.32;;;2.90;;
51566;SDS011;37657;53.182;5.638;2024-01-15T13:56:06;6.13;;;3.25;;
51566;SDS011;37657;53.182;5.638;2024-01-15T13:58:33;10.65;;;4.18;;
51566;SDS011;37657;53.182;5.638;2024-01-15T14:00:59;6.13;;;3.15;;
51566;SDS011;37657;53.182;5.638;2024-01-15T14:03:25;8.98;;;4.90;;
51566;SDS011;37657;53.182;5.638;2024-01-15T14:05:51;4.28;;;2.85;;
51566;SDS011;37657;53.182;5.638;2024-01-15T14:08:17;3.58;;;2.63;;
51566;SDS011;37657;53.182;5.638;2024-01-15T14:10:43;4.25;;;2.53;;
51566;SDS011;37657;53.182;5.638;2024-01-15T14:13:09;5.80;;;3.58;;
51566;SDS011;37657;53.182;5.638;2024-01-15T14:15:34;5.40;;;2.53;;
51566;SDS011;37657;53.182;5.638;2024-01-15T14:18:00;8.98;;;3.35;;
51566;SDS011;37657;53.182;5.638;2024-01-15T14:20:26;6.32;;;2.35;;
51566;SDS011;37657;53.182;5.638;2024-01-15T14:22:52;3.83;;;1.92;;
51566;SDS011;37657;53.182;5.638;2024-01-15T14:25:19;3.25;;;1.42;;
51566;SDS011;37657;53.182;5.638;2024-01-15T14:27:45;3.00;;;1.77;;
51566;SDS011;37657;53.182;5.638;2024-01-15T14:30:11;2.50;;;1.58;;
51566;SDS011;37657;53.182;5.638;2024-01-15T14:32:38;4.57;;;2.47;;
51566;SDS011;37657;53.182;5.638;2024-01-15T14:35:04;3.85;;;2.60;;
51566;SDS011;37657;53.182;5.638;2024-01-15T14:37:31;0.85;;;0.82;;
51566;SDS011;37657;53.182;5.638;2024-01-15T14:39:56;3.10;;;1.90;;
51566;SDS011;37657;53.182;5.638;2024-01-15T14:42:22;4.53;;;1.90;;
51566;SDS011;37657;53.182;5.638;2024-01-15T14:44:49;5.40;;;3.72;;
51566;SDS011;37657;53.182;5.638;2024-01-15T14:47:15;6.88;;;2.47;;
51566;SDS011;37657;53.182;5.638;2024-01-15T14:49:43;5.40;;;2.53;;
51566;SDS011;37657;53.182;5.638;2024-01-15T14:52:09;6.30;;;2.30;;